Time;durP1;ratioP1;P1;durP2;ratioP2;P2;SDS_P1;SDS_P2;PMS_P1;PMS_P2;Temp;Humidity;BMP_temperature;BMP_pressure;BME280_temperature;BME280_humidity;BME280_pressure;Samples;Min_cycle;Max_cycle;Signal;HPM_P1;HPM_P2
2022/02/10 00:04:31;;;;;;;14.13;8.07;;;6.80;99.90;;;;;;5011625;28;20096;-42
2022/02/10 00:13:28;;;;;;;13.07;6.78;;;6.70;99.90;;;;;;5011703;28;20034;-48
2022/02/10 00:21:12;;;;;;;11.68;7.45;;;6.60;99.90;;;;;;5008699;28;20057;-47
2022/02/10 00:34:42;;;;;;;14.68;8.80;;;6.50;99.90;;;;;;5011732;28;20097;-48
2022/02/10 00:37:13;;;;;;;16.52;8.57;;;6.40;99.90;;;;;;5015223;28;20478;-40
2022/02/10 00:42:24;;;;;;;13.25;8.82;;;6.40;99.90;;;;;;5015261;28;20100;-47
2022/02/10 00:44:49;;;;;;;13.30;8.80;;;6.40;99.90;;;;;;5014797;28;20034;-49
2022/02/10 00:47:15;;;;;;;16.33;9.80;;;6.40;99.90;;;;;;5014966;28;20034;-53
2022/02/10 00:49:41;;;;;;;13.43;8.93;;;6.40;99.90;;;;;;5014875;28;20054;-41
2022/02/10 00:52:07;;;;;;;16.77;8.25;;;6.40;99.90;;;;;;5014958;28;20022;-46
2022/02/10 00:54:36;;;;;;;18.00;8.38;;;6.40;99.90;;;;;;5014803;28;20044;-49
2022/02/10 00:57:06;;;;;;;15.00;10.00;;;6.40;99.90;;;;;;5014853;28;20478;-49
2022/02/10 01:00:01;;;;;;;12.65;8.77;;;6.40;99.90;;;;;;5014777;28;20022;-51
2022/02/10 01:07:01;;;;;;;13.15;9.25;;;6.40;99.90;;;;;;5014904;28;20429;-46
2022/02/10 01:29:41;;;;;;;13.10;9.35;;;6.50;99.90;;;;;;5014315;28;20037;-46
2022/02/10 01:32:08;;;;;;;13.85;8.40;;;6.50;99.90;;;;;;5013802;28;20022;-51
2022/02/10 01:34:38;;;;;;;15.38;8.50;;;6.50;99.90;;;;;;5014129;28;20374;-50
2022/02/10 01:37:04;;;;;;;15.55;9.35;;;6.40;99.90;;;;;;5012946;28;20062;-48
2022/02/10 01:39:34;;;;;;;15.32;8.88;;;6.30;99.90;;;;;;5014072;28;20025;-46
2022/02/10 02:03:56;;;;;;;14.00;8.18;;;6.30;99.90;;;;;;5013466;28;20025;-47
2022/02/10 02:06:25;;;;;;;14.90;10.20;;;6.20;99.90;;;;;;5013463;28;20033;-48
2022/02/10 02:08:51;;;;;;;11.75;9.05;;;6.10;99.90;;;;;;5013580;28;20510;-48
2022/02/10 02:11:17;;;;;;;14.18;9.32;;;6.10;99.90;;;;;;5013331;28;20072;-43
2022/02/10 02:13:42;;;;;;;18.20;9.85;;;6.00;99.90;;;;;;5013097;28;20386;-48
2022/02/10 02:16:08;;;;;;;18.65;9.90;;;6.00;99.90;;;;;;5013782;28;20037;-43
2022/02/10 02:18:33;;;;;;;14.52;9.20;;;6.00;99.90;;;;;;5013241;28;20029;-47
2022/02/10 02:21:00;;;;;;;17.52;10.30;;;5.90;99.90;;;;;;5013156;28;20032;-48
2022/02/10 02:23:28;;;;;;;20.55;11.60;;;5.90;99.90;;;;;;5013046;28;20112;-48
2022/02/10 02:26:13;;;;;;;18.30;10.18;;;5.90;99.90;;;;;;5013234;28;20049;-46
2022/02/10 02:28:43;;;;;;;17.50;10.70;;;5.80;99.90;;;;;;5013050;28;20052;-47
2022/02/10 02:31:13;;;;;;;20.20;10.35;;;5.60;99.90;;;;;;5012591;28;20058;-45
2022/02/10 03:04:13;;;;;;;16.30;11.07;;;5.00;99.90;;;;;;5012368;28;20406;-49
2022/02/10 03:06:40;;;;;;;16.08;9.98;;;5.00;99.90;;;;;;5012417;28;20045;-48
2022/02/10 03:09:11;;;;;;;15.80;10.80;;;5.00;99.90;;;;;;5012440;28;20547;-46
2022/02/10 03:11:39;;;;;;;16.05;11.48;;;4.90;99.90;;;;;;5012259;28;20026;-48
2022/02/10 03:14:10;;;;;;;19.85;13.07;;;4.90;99.90;;;;;;5012002;28;20036;-45
2022/02/10 04:02:17;;;;;;;16.42;11.50;;;4.80;99.90;;;;;;5011948;28;20033;-46
2022/02/10 04:15:15;;;;;;;17.65;10.15;;;4.80;99.90;;;;;;5006960;28;20080;-41
2022/02/10 04:18:09;;;;;;;20.80;10.90;;;4.90;99.90;;;;;;5015587;28;20022;-43
2022/02/10 04:20:55;;;;;;;13.93;10.10;;;5.00;99.90;;;;;;5015337;28;20049;-46
2022/02/10 04:31:33;;;;;;;19.67;9.30;;;4.90;99.90;;;;;;5015094;28;20121;-45
2022/02/10 04:40:28;;;;;;;14.25;9.68;;;5.00;99.90;;;;;;5015215;28;20447;-48
2022/02/10 04:53:35;;;;;;;18.33;10.02;;;5.00;99.90;;;;;;5014929;28;20657;-48
2022/02/10 04:53:58;;;;;;;15.75;9.02;;;5.00;99.90;;;;;;5014676;28;20053;-45
2022/02/10 05:18:39;;;;;;;14.50;9.25;;;5.00;99.90;;;;;;5014601;28;20450;-45
2022/02/10 05:23:23;;;;;;;10.63;7.80;;;4.90;99.90;;;;;;5014444;28;20029;-47
2022/02/10 05:32:03;;;;;;;14.95;8.68;;;4.90;99.90;;;;;;5001748;28;20052;-46
2022/02/10 05:34:28;;;;;;;18.88;9.70;;;4.90;99.90;;;;;;5013805;28;20028;-47
2022/02/10 05:36:54;;;;;;;11.30;7.82;;;4.90;99.90;;;;;;5038296;22;20026;-45
2022/02/10 05:39:24;;;;;;;12.75;7.80;;;4.90;99.90;;;;;;5052522;28;20025;-48
2022/02/10 05:47:46;;;;;;;22.33;8.82;;;4.90;99.90;;;;;;5054047;28;20025;-45
2022/02/10 05:55:48;;;;;;;12.18;8.35;;;4.90;99.90;;;;;;5053918;28;20036;-45
2022/02/10 06:52:26;;;;;;;13.60;8.45;;;5.20;99.90;;;;;;5053432;28;20021;-47
2022/02/10 06:58:03;;;;;;;16.02;9.20;;;5.20;99.90;;;;;;5052857;28;20025;-46
2022/02/10 07:03:45;;;;;;;11.35;8.27;;;5.30;99.90;;;;;;5052678;28;20519;-47
2022/02/10 07:06:18;;;;;;;10.27;6.95;;;5.20;99.90;;;;;;5052634;28;20461;-49
2022/02/10 07:43:34;;;;;;;11.07;7.80;;;5.30;99.90;;;;;;5052853;28;20124;-47
2022/02/10 07:47:43;;;;;;;15.27;7.70;;;5.80;99.90;;;;;;5052769;28;20028;-44
2022/02/10 07:53:17;;;;;;;13.50;8.95;;;6.00;99.90;;;;;;5052404;28;20518;-49
2022/02/10 07:58:28;;;;;;;13.10;7.35;;;6.10;99.90;;;;;;5052004;28;20474;-48
2022/02/10 08:04:22;;;;;;;20.05;7.63;;;6.10;99.90;;;;;;5052295;28;20025;-45
2022/02/10 09:10:10;;;;;;;13.25;7.72;;;6.90;99.90;;;;;;5046095;28;20048;-46
2022/02/10 09:12:12;;;;;;;11.13;7.57;;;7.00;99.90;;;;;;5042550;28;20051;-49
2022/02/10 10:00:20;;;;;;;11.10;7.00;;;7.90;99.90;;;;;;5054322;28;20090;-49
2022/02/10 10:02:56;;;;;;;11.60;7.40;;;7.80;99.90;;;;;;5053921;28;20021;-49
2022/02/10 10:05:33;;;;;;;16.52;8.00;;;7.90;99.90;;;;;;5053998;28;20025;-47
2022/02/10 10:08:20;;;;;;;13.85;8.65;;;7.90;99.90;;;;;;5053992;28;20032;-47
2022/02/10 10:11:01;;;;;;;12.70;8.90;;;8.00;99.90;;;;;;5053473;28;20021;-43
2022/02/10 10:16:29;;;;;;;15.82;7.90;;;7.90;99.90;;;;;;5053611;28;20028;-49
2022/02/10 10:19:22;;;;;;;12.75;8.32;;;8.00;99.90;;;;;;5053304;28;20017;-46
2022/02/10 10:22:01;;;;;;;11.82;7.90;;;7.90;99.90;;;;;;5053536;28;20560;-50
2022/02/10 10:51:54;;;;;;;12.80;8.50;;;8.20;99.90;;;;;;5044657;28;20030;-49
2022/02/10 10:57:18;;;;;;;15.40;9.43;;;8.20;99.90;;;;;;5052612;28;20036;-46
2022/02/10 11:42:24;;;;;;;9.27;6.45;;;8.20;99.90;;;;;;5032348;28;20497;-48
2022/02/10 12:29:26;;;;;;;10.02;6.30;;;8.40;99.90;;;;;;5031644;28;20397;-46
2022/02/10 13:23:37;;;;;;;6.55;5.07;;;8.50;99.90;;;;;;5027474;28;20452;-40
2022/02/10 13:30:05;;;;;;;6.03;5.40;;;8.60;99.90;;;;;;5029966;28;20111;-40
2022/02/10 13:32:56;;;;;;;6.53;5.82;;;8.60;99.90;;;;;;5013397;28;20116;-49
2022/02/10 14:25:59;;;;;;;10.20;8.15;;;8.70;99.90;;;;;;5033234;28;20033;-46
2022/02/10 14:28:26;;;;;;;9.25;8.32;;;8.60;99.90;;;;;;5032907;28;20109;-47
2022/02/10 14:30:52;;;;;;;12.45;8.27;;;8.70;99.90;;;;;;5026767;28;20044;-48
2022/02/10 14:33:29;;;;;;;14.65;9.43;;;8.80;99.90;;;;;;5020508;28;20017;-47
2022/02/10 14:36:00;;;;;;;10.70;8.50;;;8.90;99.90;;;;;;5032645;28;20033;-41
2022/02/10 15:20:58;;;;;;;12.70;9.32;;;8.70;99.90;;;;;;5022472;28;20029;-44
2022/02/10 16:17:38;;;;;;;12.32;9.13;;;8.40;99.90;;;;;;5031535;28;20104;-46
2022/02/10 16:20:08;;;;;;;15.30;9.63;;;8.40;99.90;;;;;;5035410;28;20017;-41
2022/02/10 16:22:38;;;;;;;14.90;10.43;;;8.40;99.90;;;;;;5032556;28;20022;-44
2022/02/10 16:25:08;;;;;;;16.83;10.20;;;8.40;99.90;;;;;;5033164;28;20032;-44
2022/02/10 16:27:35;;;;;;;14.00;9.80;;;8.40;99.90;;;;;;5035253;28;20033;-44
2022/02/10 16:30:11;;;;;;;13.43;8.40;;;8.30;99.90;;;;;;5035078;28;20030;-45
2022/02/10 16:32:39;;;;;;;12.40;9.55;;;8.30;99.90;;;;;;5035218;28;20025;-46
2022/02/10 16:35:05;;;;;;;31.38;17.33;;;8.30;99.90;;;;;;5035092;28;20020;-39
2022/02/10 16:37:33;;;;;;;16.42;12.48;;;8.30;99.90;;;;;;5034973;28;20429;-43
2022/02/10 16:39:58;;;;;;;15.63;10.93;;;8.40;99.90;;;;;;5035372;28;20473;-46
2022/02/10 16:42:24;;;;;;;14.90;10.25;;;8.30;99.90;;;;;;5034972;28;20032;-44
2022/02/10 16:44:51;;;;;;;17.27;11.05;;;8.30;99.90;;;;;;5034983;28;20369;-45
2022/02/10 16:47:17;;;;;;;15.32;10.27;;;8.20;99.90;;;;;;5036736;28;20493;-40
2022/02/10 16:49:49;;;;;;;14.13;10.95;;;8.10;99.90;;;;;;5035418;28;20109;-45
2022/02/10 16:52:21;;;;;;;15.07;11.32;;;8.20;99.90;;;;;;5034984;28;20028;-44
2022/02/10 16:54:49;;;;;;;16.63;10.60;;;8.20;99.90;;;;;;5034818;28;20338;-48
2022/02/10 16:57:37;;;;;;;13.52;10.38;;;8.10;99.90;;;;;;5034659;28;20392;-47
2022/02/10 17:00:12;;;;;;;18.13;11.30;;;8.10;99.90;;;;;;5033540;28;20072;-46
2022/02/10 17:02:53;;;;;;;17.27;11.73;;;8.10;99.90;;;;;;5034955;28;20022;-49
2022/02/10 17:27:05;;;;;;;23.05;14.20;;;7.80;99.90;;;;;;5029064;28;20388;-39
2022/02/10 17:29:56;;;;;;;16.90;12.50;;;7.90;99.90;;;;;;5034360;28;20033;-43
2022/02/10 17:44:01;;;;;;;23.30;15.60;;;7.80;99.90;;;;;;5014200;28;20517;-42
2022/02/10 17:53:56;;;;;;;19.27;13.85;;;7.80;99.90;;;;;;5013665;28;20022;-42
2022/02/10 17:56:22;;;;;;;24.65;14.88;;;7.80;99.90;;;;;;5013681;28;20033;-43
2022/02/10 17:58:49;;;;;;;23.75;14.00;;;7.80;99.90;;;;;;5011687;28;20026;-44
2022/02/10 18:01:15;;;;;;;23.67;15.73;;;7.80;99.90;;;;;;5012405;28;20030;-45
2022/02/10 18:03:40;;;;;;;24.95;15.68;;;7.80;99.90;;;;;;5013480;28;20038;-44
2022/02/10 18:08:41;;;;;;;22.80;16.08;;;7.70;99.90;;;;;;5014073;28;20026;-44
2022/02/10 18:11:37;;;;;;;25.50;16.42;;;7.80;99.90;;;;;;5013729;28;20112;-46
2022/02/10 18:14:00;;;;;;;25.38;15.52;;;7.80;99.90;;;;;;5013837;28;20113;-45
2022/02/10 18:19:21;;;;;;;21.35;14.15;;;7.70;99.90;;;;;;5012480;28;20397;-46
2022/02/10 19:09:50;;;;;;;10.07;8.65;;;7.60;99.90;;;;;;5011717;28;20022;-52
2022/02/10 19:12:25;;;;;;;11.27;8.50;;;7.70;99.90;;;;;;4994385;28;20072;-52
2022/02/10 19:15:17;;;;;;;11.70;9.52;;;7.70;99.90;;;;;;5010372;28;20022;-53
2022/02/10 19:17:38;;;;;;;11.75;8.85;;;7.70;99.90;;;;;;5011277;28;20042;-52
2022/02/10 19:20:05;;;;;;;11.88;9.25;;;7.70;99.90;;;;;;5010225;28;20026;-49
2022/02/10 19:22:30;;;;;;;14.30;9.23;;;7.60;99.90;;;;;;5011474;28;20100;-52
2022/02/10 19:24:56;;;;;;;12.48;9.65;;;7.70;99.90;;;;;;5010891;28;20065;-49
2022/02/10 19:27:22;;;;;;;12.82;9.60;;;7.60;99.90;;;;;;5010677;28;20080;-47
2022/02/10 19:29:49;;;;;;;13.35;9.98;;;7.60;99.90;;;;;;5026306;28;20026;-47
2022/02/10 19:32:17;;;;;;;12.65;9.45;;;7.60;99.90;;;;;;5010852;28;20507;-49
2022/02/10 19:34:46;;;;;;;10.65;9.00;;;7.50;99.90;;;;;;5010918;28;20076;-50
2022/02/10 19:37:14;;;;;;;12.73;10.18;;;7.50;99.90;;;;;;5011084;28;20101;-48
2022/02/10 19:39:42;;;;;;;11.75;9.57;;;7.50;99.90;;;;;;5010510;28;20021;-48
2022/02/10 19:42:08;;;;;;;12.32;9.63;;;7.50;99.90;;;;;;5011424;28;20104;-47
2022/02/10 19:44:34;;;;;;;12.40;9.70;;;7.50;99.90;;;;;;5010707;28;20116;-49
2022/02/10 19:47:03;;;;;;;13.32;10.30;;;7.40;99.90;;;;;;5010734;28;20541;-49
2022/02/10 19:49:28;;;;;;;12.25;10.35;;;7.50;99.90;;;;;;5011260;28;20037;-51
2022/02/10 19:51:54;;;;;;;16.05;11.50;;;7.50;99.90;;;;;;5011011;28;20030;-48
2022/02/10 19:54:26;;;;;;;13.35;10.45;;;7.50;99.90;;;;;;5010899;28;20018;-48
2022/02/10 19:56:54;;;;;;;16.58;10.93;;;7.50;99.90;;;;;;5011049;28;20022;-51
2022/02/10 19:59:23;;;;;;;16.13;11.95;;;7.40;99.90;;;;;;5010479;28;20033;-46
2022/02/10 20:01:50;;;;;;;14.95;11.25;;;7.50;99.90;;;;;;5010084;28;20030;-48
2022/02/10 20:04:18;;;;;;;15.65;11.40;;;7.50;99.90;;;;;;5010924;28;20481;-47
2022/02/10 20:06:44;;;;;;;16.20;12.38;;;7.60;99.90;;;;;;5010690;28;20504;-48
2022/02/10 20:09:10;;;;;;;19.00;12.30;;;7.50;99.90;;;;;;5011168;28;20034;-49
2022/02/10 20:11:35;;;;;;;15.35;11.60;;;7.50;99.90;;;;;;5011018;28;20026;-47
2022/02/10 20:14:01;;;;;;;16.55;12.38;;;7.50;99.90;;;;;;5010724;28;20022;-50
2022/02/10 20:16:26;;;;;;;20.33;12.30;;;7.40;99.90;;;;;;5011117;28;20033;-48
2022/02/10 20:18:52;;;;;;;15.10;12.05;;;7.40;99.90;;;;;;5010801;28;20033;-48
2022/02/10 20:21:18;;;;;;;17.45;12.20;;;7.40;99.90;;;;;;5010716;28;20535;-54
2022/02/10 20:23:45;;;;;;;16.50;13.10;;;7.50;99.90;;;;;;5011030;28;20038;-51
2022/02/10 20:26:11;;;;;;;18.20;12.77;;;7.50;99.90;;;;;;5010340;28;20053;-47
2022/02/10 20:28:38;;;;;;;17.17;13.02;;;7.40;99.90;;;;;;5011036;28;20497;-51
2022/02/10 20:31:03;;;;;;;17.30;12.93;;;7.50;99.90;;;;;;5010935;28;20033;-50
2022/02/10 20:33:31;;;;;;;16.77;12.55;;;7.40;99.90;;;;;;5009271;28;20022;-50
2022/02/10 20:35:59;;;;;;;18.67;12.98;;;7.40;99.90;;;;;;5010980;28;20393;-51
2022/02/10 20:38:26;;;;;;;20.27;13.82;;;7.40;99.90;;;;;;5010236;28;20083;-49
2022/02/10 20:41:01;;;;;;;19.00;13.25;;;7.50;99.90;;;;;;5010454;28;20036;-50
2022/02/10 20:43:27;;;;;;;;;;;7.50;99.90;;;;;;5010995;28;20022;-49
2022/02/10 20:45:57;;;;;;;16.77;12.00;;;7.50;99.90;;;;;;5010787;28;19912;-46
2022/02/10 20:48:24;;;;;;;16.83;12.50;;;7.50;99.90;;;;;;5009847;28;20034;-50
2022/02/10 20:50:56;;;;;;;19.63;13.27;;;7.50;99.90;;;;;;5010468;28;20022;-47
2022/02/10 20:53:24;;;;;;;17.17;12.23;;;7.50;99.90;;;;;;5013410;28;20068;-45
2022/02/10 20:55:51;;;;;;;19.00;13.48;;;7.50;99.90;;;;;;5014696;28;20018;-46
2022/02/10 20:58:19;;;;;;;18.92;13.00;;;7.40;99.90;;;;;;5014280;28;20078;-50
2022/02/10 21:00:45;;;;;;;20.30;13.50;;;7.40;99.90;;;;;;5013845;28;20061;-51
2022/02/10 21:03:11;;;;;;;17.58;12.18;;;7.50;99.90;;;;;;5014262;28;20493;-45
2022/02/10 21:05:40;;;;;;;46.45;29.70;;;7.50;99.90;;;;;;5014987;28;20093;-46
2022/02/10 21:11:02;;;;;;;16.65;12.35;;;7.50;99.90;;;;;;4985851;28;20049;-48
2022/02/10 21:13:29;;;;;;;16.42;11.50;;;7.50;99.90;;;;;;4994639;28;20023;-46
2022/02/10 21:15:55;;;;;;;16.85;11.40;;;7.50;99.90;;;;;;4994956;28;20015;-48
2022/02/10 21:18:21;;;;;;;18.30;11.70;;;7.40;99.90;;;;;;4994878;28;20419;-45
2022/02/10 21:20:48;;;;;;;17.20;12.68;;;7.40;99.90;;;;;;5010979;28;20108;-44
2022/02/10 21:25:41;;;;;;;18.13;11.15;;;7.40;99.90;;;;;;5014681;28;20025;-47
2022/02/10 21:28:22;;;;;;;15.82;12.23;;;7.30;99.90;;;;;;5014123;28;20477;-45
2022/02/10 21:30:51;;;;;;;16.83;13.18;;;7.30;99.90;;;;;;5014321;28;20472;-46
2022/02/10 21:33:25;;;;;;;19.90;13.20;;;7.30;99.90;;;;;;5013651;28;20025;-47
2022/02/10 21:38:38;;;;;;;16.90;12.88;;;7.30;99.90;;;;;;5012853;28;20045;-45
2022/02/10 21:52:46;;;;;;;17.15;13.20;;;7.10;99.90;;;;;;5013122;28;20121;-44
2022/02/10 21:54:42;;;;;;;21.58;13.95;;;7.20;99.90;;;;;;4999341;28;20060;-43
2022/02/10 21:59:52;;;;;;;21.38;13.90;;;7.10;99.90;;;;;;5013374;28;20029;-44
2022/02/10 22:18:33;;;;;;;24.17;15.30;;;7.00;99.90;;;;;;4993549;28;20093;-48
2022/02/10 22:21:02;;;;;;;24.98;14.52;;;7.00;99.90;;;;;;4994210;28;20026;-45
2022/02/10 22:23:29;;;;;;;19.65;13.40;;;6.90;99.90;;;;;;4993488;28;20014;-48
2022/02/10 22:26:02;;;;;;;25.52;13.70;;;6.90;99.90;;;;;;5010511;28;20540;-45
2022/02/10 22:36:23;;;;;;;26.23;13.82;;;6.70;99.90;;;;;;5013035;28;20022;-48
2022/02/10 22:38:52;;;;;;;22.48;14.05;;;6.70;99.90;;;;;;5012386;28;20029;-46
2022/02/10 22:41:18;;;;;;;26.02;13.95;;;6.70;99.90;;;;;;5011798;28;20048;-46
2022/02/10 22:43:49;;;;;;;20.88;13.50;;;6.70;99.90;;;;;;5012470;28;20120;-47
2022/02/10 22:46:16;;;;;;;20.98;13.85;;;6.70;99.90;;;;;;5012868;28;20501;-45
2022/02/10 22:48:44;;;;;;;20.52;14.48;;;6.70;99.90;;;;;;5011227;28;20037;-48
2022/02/10 22:51:14;;;;;;;22.65;14.30;;;6.70;99.90;;;;;;5011900;28;20535;-47
2022/02/10 22:53:39;;;;;;;26.05;13.85;;;6.70;99.90;;;;;;5011523;28;20116;-46
2022/02/10 22:56:10;;;;;;;23.48;15.45;;;6.60;99.90;;;;;;5007595;28;20858;-48
2022/02/10 22:58:38;;;;;;;22.15;14.85;;;6.60;99.90;;;;;;5010705;28;20022;-50
2022/02/10 23:01:05;;;;;;;20.27;14.25;;;6.60;99.90;;;;;;5011276;28;20120;-48
2022/02/10 23:03:32;;;;;;;19.75;12.73;;;6.60;99.90;;;;;;5008596;28;20366;-47
2022/02/10 23:05:58;;;;;;;24.20;14.73;;;6.60;99.90;;;;;;5011326;28;20024;-46
2022/02/10 23:08:24;;;;;;;23.25;14.02;;;6.50;99.90;;;;;;5009924;28;20177;-44
2022/02/10 23:10:51;;;;;;;21.70;13.43;;;6.60;99.90;;;;;;5011786;28;20116;-50
2022/02/10 23:13:23;;;;;;;25.02;14.82;;;6.50;99.90;;;;;;5011053;28;20021;-47
2022/02/10 23:15:50;;;;;;;20.48;14.02;;;6.50;99.90;;;;;;5010908;28;20168;-47
2022/02/10 23:18:18;;;;;;;18.55;13.32;;;6.60;99.90;;;;;;5010069;28;20449;-49
2022/02/10 23:20:45;;;;;;;24.95;14.05;;;6.50;99.90;;;;;;5010745;28;20498;-44
2022/02/10 23:23:13;;;;;;;22.63;13.00;;;6.60;99.90;;;;;;5008160;28;20049;-45
2022/02/10 23:25:41;;;;;;;21.70;13.32;;;6.60;99.90;;;;;;5009678;28;20049;-44
2022/02/10 23:28:11;;;;;;;23.63;13.52;;;6.50;99.90;;;;;;5011563;28;20516;-47
2022/02/10 23:30:37;;;;;;;22.83;14.43;;;6.50;99.90;;;;;;5011125;28;20030;-44
2022/02/10 23:33:15;;;;;;;20.45;13.10;;;6.50;99.90;;;;;;5011253;28;20018;-46
2022/02/10 23:38:31;;;;;;;23.90;13.02;;;6.60;99.90;;;;;;5009663;28;20149;-44
2022/02/10 23:43:41;;;;;;;21.38;13.63;;;6.60;99.90;;;;;;5010937;28;20045;-44
2022/02/10 23:46:07;;;;;;;22.00;12.55;;;6.60;99.90;;;;;;5010620;28;20481;-47
2022/02/10 23:48:34;;;;;;;19.65;12.65;;;6.60;99.90;;;;;;5010832;28;20052;-48
2022/02/10 23:51:00;;;;;;;18.30;11.35;;;6.60;99.90;;;;;;5010775;28;20393;-47
2022/02/10 23:53:27;;;;;;;19.75;12.15;;;6.60;99.90;;;;;;5010663;28;20137;-44
2022/02/10 23:55:53;;;;;;;20.27;12.40;;;6.60;99.90;;;;;;5024540;23;20044;-42
